sensor_id;sensor_type;location;lat;lon;timestamp;P1;durP1;ratioP1;P2;durP2;ratioP2
12792;SDS011;6460;42.684;23.260;2023-08-17T00:00:02;6.90;;;5.17;;
12792;SDS011;6460;42.684;23.260;2023-08-17T00:02:33;6.63;;;5.10;;
12792;SDS011;6460;42.684;23.260;2023-08-17T00:05:00;6.97;;;5.30;;
12792;SDS011;6460;42.684;23.260;2023-08-17T00:07:29;7.03;;;5.40;;
12792;SDS011;6460;42.684;23.260;2023-08-17T00:09:56;6.27;;;5.20;;
12792;SDS011;6460;42.684;23.260;2023-08-17T00:12:23;7.23;;;5.13;;
12792;SDS011;6460;42.684;23.260;2023-08-17T00:14:51;5.20;;;4.57;;
12792;SDS011;6460;42.684;23.260;2023-08-17T00:17:19;6.00;;;4.77;;
12792;SDS011;6460;42.684;23.260;2023-08-17T00:19:46;7.30;;;4.90;;
12792;SDS011;6460;42.684;23.260;2023-08-17T00:22:13;5.93;;;5.27;;
12792;SDS011;6460;42.684;23.260;2023-08-17T00:24:42;8.07;;;5.73;;
12792;SDS011;6460;42.684;23.260;2023-08-17T00:27:10;6.90;;;5.47;;
12792;SDS011;6460;42.684;23.260;2023-08-17T00:29:37;8.90;;;5.27;;
12792;SDS011;6460;42.684;23.260;2023-08-17T00:32:04;5.80;;;4.83;;
12792;SDS011;6460;42.684;23.260;2023-08-17T00:34:33;5.83;;;5.23;;
12792;SDS011;6460;42.684;23.260;2023-08-17T00:37:00;6.53;;;5.00;;
12792;SDS011;6460;42.684;23.260;2023-08-17T00:39:27;6.87;;;4.30;;
12792;SDS011;6460;42.684;23.260;2023-08-17T00:41:55;5.20;;;4.70;;
12792;SDS011;6460;42.684;23.260;2023-08-17T00:44:23;5.00;;;4.10;;
12792;SDS011;6460;42.684;23.260;2023-08-17T00:46:50;6.63;;;4.67;;
12792;SDS011;6460;42.684;23.260;2023-08-17T00:49:18;5.40;;;4.00;;
12792;SDS011;6460;42.684;23.260;2023-08-17T00:51:45;4.63;;;4.23;;
12792;SDS011;6460;42.684;23.260;2023-08-17T00:54:13;4.90;;;4.27;;
12792;SDS011;6460;42.684;23.260;2023-08-17T00:56:44;5.70;;;4.47;;
12792;SDS011;6460;42.684;23.260;2023-08-17T00:59:12;4.50;;;4.10;;
12792;SDS011;6460;42.684;23.260;2023-08-17T01:01:40;6.03;;;4.20;;
12792;SDS011;6460;42.684;23.260;2023-08-17T01:04:07;5.27;;;4.03;;
12792;SDS011;6460;42.684;23.260;2023-08-17T01:06:34;5.70;;;4.37;;
12792;SDS011;6460;42.684;23.260;2023-08-17T01:09:01;4.97;;;3.93;;
12792;SDS011;6460;42.684;23.260;2023-08-17T01:11:29;4.53;;;3.90;;
12792;SDS011;6460;42.684;23.260;2023-08-17T01:14:04;3.90;;;3.40;;
12792;SDS011;6460;42.684;23.260;2023-08-17T01:16:38;4.07;;;3.67;;
12792;SDS011;6460;42.684;23.260;2023-08-17T01:19:18;4.17;;;3.77;;
12792;SDS011;6460;42.684;23.260;2023-08-17T01:21:51;4.87;;;3.90;;
12792;SDS011;6460;42.684;23.260;2023-08-17T01:24:25;4.97;;;3.53;;
12792;SDS011;6460;42.684;23.260;2023-08-17T01:26:52;3.70;;;3.40;;
12792;SDS011;6460;42.684;23.260;2023-08-17T01:29:19;4.23;;;3.50;;
12792;SDS011;6460;42.684;23.260;2023-08-17T01:31:47;5.20;;;3.93;;
12792;SDS011;6460;42.684;23.260;2023-08-17T01:34:21;3.97;;;3.37;;
12792;SDS011;6460;42.684;23.260;2023-08-17T01:36:52;5.73;;;3.80;;
12792;SDS011;6460;42.684;23.260;2023-08-17T01:39:23;3.70;;;3.30;;
12792;SDS011;6460;42.684;23.260;2023-08-17T01:41:54;4.33;;;3.77;;
12792;SDS011;6460;42.684;23.260;2023-08-17T01:44:24;4.40;;;3.30;;
12792;SDS011;6460;42.684;23.260;2023-08-17T01:46:52;4.97;;;3.50;;
12792;SDS011;6460;42.684;23.260;2023-08-17T01:49:20;4.70;;;3.30;;
12792;SDS011;6460;42.684;23.260;2023-08-17T01:51:47;4.67;;;3.57;;
12792;SDS011;6460;42.684;23.260;2023-08-17T01:54:14;4.23;;;3.53;;
12792;SDS011;6460;42.684;23.260;2023-08-17T01:56:43;4.10;;;3.40;;
12792;SDS011;6460;42.684;23.260;2023-08-17T01:59:10;6.53;;;3.97;;
12792;SDS011;6460;42.684;23.260;2023-08-17T02:01:38;3.70;;;3.30;;
12792;SDS011;6460;42.684;23.260;2023-08-17T02:04:05;6.33;;;3.90;;
12792;SDS011;6460;42.684;23.260;2023-08-17T02:06:33;6.53;;;3.70;;
12792;SDS011;6460;42.684;23.260;2023-08-17T02:09:00;5.90;;;3.80;;
12792;SDS011;6460;42.684;23.260;2023-08-17T02:11:27;4.17;;;3.40;;
12792;SDS011;6460;42.684;23.260;2023-08-17T02:13:55;4.77;;;3.67;;
12792;SDS011;6460;42.684;23.260;2023-08-17T02:16:22;7.43;;;3.93;;
12792;SDS011;6460;42.684;23.260;2023-08-17T02:18:49;5.17;;;3.60;;
12792;SDS011;6460;42.684;23.260;2023-08-17T02:21:16;4.70;;;3.40;;
12792;SDS011;6460;42.684;23.260;2023-08-17T02:23:43;4.30;;;3.50;;
12792;SDS011;6460;42.684;23.260;2023-08-17T02:26:11;3.80;;;3.47;;
12792;SDS011;6460;42.684;23.260;2023-08-17T02:28:38;6.13;;;3.43;;
12792;SDS011;6460;42.684;23.260;2023-08-17T02:31:07;4.30;;;3.43;;
12792;SDS011;6460;42.684;23.260;2023-08-17T02:33:34;3.47;;;3.17;;
12792;SDS011;6460;42.684;23.260;2023-08-17T02:36:02;4.93;;;3.60;;
12792;SDS011;6460;42.684;23.260;2023-08-17T02:38:30;3.93;;;3.53;;
12792;SDS011;6460;42.684;23.260;2023-08-17T02:40:57;5.03;;;3.60;;
12792;SDS011;6460;42.684;23.260;2023-08-17T02:43:25;4.30;;;3.47;;
12792;SDS011;6460;42.684;23.260;2023-08-17T02:45:52;4.57;;;3.70;;
12792;SDS011;6460;42.684;23.260;2023-08-17T02:48:21;5.43;;;3.53;;
12792;SDS011;6460;42.684;23.260;2023-08-17T02:50:48;5.83;;;3.77;;
12792;SDS011;6460;42.684;23.260;2023-08-17T02:53:16;5.53;;;3.30;;
12792;SDS011;6460;42.684;23.260;2023-08-17T02:55:43;4.93;;;3.37;;
12792;SDS011;6460;42.684;23.260;2023-08-17T02:58:10;3.57;;;3.20;;
12792;SDS011;6460;42.684;23.260;2023-08-17T03:00:38;4.57;;;3.40;;
12792;SDS011;6460;42.684;23.260;2023-08-17T03:03:06;5.27;;;3.40;;
12792;SDS011;6460;42.684;23.260;2023-08-17T03:05:34;5.43;;;3.70;;
12792;SDS011;6460;42.684;23.260;2023-08-17T03:08:02;3.73;;;3.20;;
12792;SDS011;6460;42.684;23.260;2023-08-17T03:10:29;3.97;;;3.57;;
12792;SDS011;6460;42.684;23.260;2023-08-17T03:12:57;4.67;;;3.77;;
12792;SDS011;6460;42.684;23.260;2023-08-17T03:15:24;4.57;;;3.37;;
12792;SDS011;6460;42.684;23.260;2023-08-17T03:17:51;5.13;;;3.97;;
12792;SDS011;6460;42.684;23.260;2023-08-17T03:20:18;5.53;;;3.50;;
12792;SDS011;6460;42.684;23.260;2023-08-17T03:22:47;4.03;;;3.37;;
12792;SDS011;6460;42.684;23.260;2023-08-17T03:25:14;4.20;;;3.47;;
12792;SDS011;6460;42.684;23.260;2023-08-17T03:27:41;4.03;;;3.50;;
12792;SDS011;6460;42.684;23.260;2023-08-17T03:30:09;4.23;;;3.80;;
12792;SDS011;6460;42.684;23.260;2023-08-17T03:32:37;4.50;;;3.47;;
12792;SDS011;6460;42.684;23.260;2023-08-17T03:35:05;6.80;;;4.03;;
12792;SDS011;6460;42.684;23.260;2023-08-17T03:37:32;4.80;;;3.40;;
12792;SDS011;6460;42.684;23.260;2023-08-17T03:40:01;4.10;;;3.60;;
12792;SDS011;6460;42.684;23.260;2023-08-17T03:42:28;7.93;;;4.00;;
12792;SDS011;6460;42.684;23.260;2023-08-17T03:44:56;4.27;;;3.80;;
12792;SDS011;6460;42.684;23.260;2023-08-17T03:47:23;4.90;;;3.77;;
12792;SDS011;6460;42.684;23.260;2023-08-17T03:49:51;4.10;;;3.70;;
12792;SDS011;6460;42.684;23.260;2023-08-17T03:52:19;8.10;;;3.93;;
12792;SDS011;6460;42.684;23.260;2023-08-17T03:54:46;4.73;;;3.60;;
12792;SDS011;6460;42.684;23.260;2023-08-17T03:57:15;4.67;;;3.83;;
12792;SDS011;6460;42.684;23.260;2023-08-17T03:59:42;4.07;;;3.67;;
12792;SDS011;6460;42.684;23.260;2023-08-17T04:02:09;4.87;;;3.97;;
12792;SDS011;6460;42.684;23.260;2023-08-17T04:04:37;6.40;;;3.50;;
12792;SDS011;6460;42.684;23.260;2023-08-17T04:07:04;5.67;;;3.90;;
12792;SDS011;6460;42.684;23.260;2023-08-17T04:09:32;5.27;;;4.40;;
12792;SDS011;6460;42.684;23.260;2023-08-17T04:12:00;4.27;;;3.70;;
12792;SDS011;6460;42.684;23.260;2023-08-17T04:14:30;8.27;;;4.43;;
12792;SDS011;6460;42.684;23.260;2023-08-17T04:16:58;6.23;;;4.33;;
12792;SDS011;6460;42.684;23.260;2023-08-17T04:19:25;5.17;;;4.50;;
12792;SDS011;6460;42.684;23.260;2023-08-17T04:21:53;6.03;;;4.40;;
12792;SDS011;6460;42.684;23.260;2023-08-17T04:24:20;8.57;;;3.97;;
12792;SDS011;6460;42.684;23.260;2023-08-17T04:26:47;5.40;;;4.67;;
12792;SDS011;6460;42.684;23.260;2023-08-17T04:29:15;8.17;;;4.20;;
12792;SDS011;6460;42.684;23.260;2023-08-17T04:31:44;6.70;;;4.30;;
12792;SDS011;6460;42.684;23.260;2023-08-17T04:34:11;5.17;;;4.40;;
12792;SDS011;6460;42.684;23.260;2023-08-17T04:36:39;5.80;;;4.47;;
12792;SDS011;6460;42.684;23.260;2023-08-17T04:39:06;7.03;;;4.37;;
12792;SDS011;6460;42.684;23.260;2023-08-17T04:41:34;5.40;;;4.50;;
12792;SDS011;6460;42.684;23.260;2023-08-17T04:44:02;4.70;;;4.13;;
12792;SDS011;6460;42.684;23.260;2023-08-17T04:46:29;7.43;;;4.43;;
12792;SDS011;6460;42.684;23.260;2023-08-17T04:48:58;6.17;;;4.90;;
12792;SDS011;6460;42.684;23.260;2023-08-17T04:51:25;6.27;;;4.90;;
12792;SDS011;6460;42.684;23.260;2023-08-17T04:53:53;6.40;;;4.77;;
12792;SDS011;6460;42.684;23.260;2023-08-17T04:56:20;7.07;;;4.50;;
12792;SDS011;6460;42.684;23.260;2023-08-17T04:58:48;8.23;;;4.63;;
12792;SDS011;6460;42.684;23.260;2023-08-17T05:01:15;7.17;;;4.90;;
12792;SDS011;6460;42.684;23.260;2023-08-17T05:03:43;6.20;;;5.03;;
12792;SDS011;6460;42.684;23.260;2023-08-17T05:06:12;6.07;;;5.03;;
12792;SDS011;6460;42.684;23.260;2023-08-17T05:08:39;7.23;;;4.77;;
12792;SDS011;6460;42.684;23.260;2023-08-17T05:11:07;5.10;;;4.40;;
12792;SDS011;6460;42.684;23.260;2023-08-17T05:13:34;5.27;;;4.10;;
12792;SDS011;6460;42.684;23.260;2023-08-17T05:16:02;5.70;;;4.27;;
12792;SDS011;6460;42.684;23.260;2023-08-17T05:18:30;6.57;;;5.00;;
12792;SDS011;6460;42.684;23.260;2023-08-17T05:20:58;8.37;;;4.57;;
12792;SDS011;6460;42.684;23.260;2023-08-17T05:23:27;8.63;;;4.40;;
12792;SDS011;6460;42.684;23.260;2023-08-17T05:25:54;8.33;;;4.50;;
12792;SDS011;6460;42.684;23.260;2023-08-17T05:28:21;4.20;;;3.80;;
12792;SDS011;6460;42.684;23.260;2023-08-17T05:30:48;3.87;;;3.47;;
12792;SDS011;6460;42.684;23.260;2023-08-17T05:33:16;5.20;;;4.00;;
12792;SDS011;6460;42.684;23.260;2023-08-17T05:35:43;5.80;;;3.90;;
12792;SDS011;6460;42.684;23.260;2023-08-17T05:38:10;8.23;;;4.40;;
12792;SDS011;6460;42.684;23.260;2023-08-17T05:40:39;5.37;;;4.13;;
12792;SDS011;6460;42.684;23.260;2023-08-17T05:43:07;4.27;;;3.70;;
12792;SDS011;6460;42.684;23.260;2023-08-17T05:45:35;4.30;;;3.90;;
12792;SDS011;6460;42.684;23.260;2023-08-17T05:48:02;5.90;;;4.20;;
12792;SDS011;6460;42.684;23.260;2023-08-17T05:50:31;6.40;;;4.10;;
12792;SDS011;6460;42.684;23.260;2023-08-17T05:52:58;6.93;;;3.57;;
12792;SDS011;6460;42.684;23.260;2023-08-17T05:55:25;4.70;;;3.50;;
12792;SDS011;6460;42.684;23.260;2023-08-17T05:57:54;4.90;;;3.53;;
12792;SDS011;6460;42.684;23.260;2023-08-17T06:00:22;5.47;;;3.87;;
12792;SDS011;6460;42.684;23.260;2023-08-17T06:02:49;5.50;;;3.87;;
12792;SDS011;6460;42.684;23.260;2023-08-17T06:05:16;5.00;;;4.00;;
12792;SDS011;6460;42.684;23.260;2023-08-17T06:07:44;4.90;;;4.13;;
12792;SDS011;6460;42.684;23.260;2023-08-17T06:10:11;5.00;;;3.10;;
12792;SDS011;6460;42.684;23.260;2023-08-17T06:12:39;5.80;;;3.53;;
12792;SDS011;6460;42.684;23.260;2023-08-17T06:15:08;4.53;;;3.53;;
12792;SDS011;6460;42.684;23.260;2023-08-17T06:17:36;4.90;;;3.97;;
12792;SDS011;6460;42.684;23.260;2023-08-17T06:20:04;6.67;;;3.80;;
12792;SDS011;6460;42.684;23.260;2023-08-17T06:22:35;7.80;;;4.30;;
12792;SDS011;6460;42.684;23.260;2023-08-17T06:25:03;4.70;;;4.20;;
12792;SDS011;6460;42.684;23.260;2023-08-17T06:27:31;5.53;;;4.20;;
12792;SDS011;6460;42.684;23.260;2023-08-17T06:29:58;4.43;;;4.03;;
12792;SDS011;6460;42.684;23.260;2023-08-17T06:32:27;6.30;;;4.43;;
12792;SDS011;6460;42.684;23.260;2023-08-17T06:34:55;6.53;;;4.37;;
12792;SDS011;6460;42.684;23.260;2023-08-17T06:37:22;5.63;;;4.37;;
12792;SDS011;6460;42.684;23.260;2023-08-17T06:39:50;8.57;;;4.83;;
12792;SDS011;6460;42.684;23.260;2023-08-17T06:42:17;5.27;;;4.67;;
12792;SDS011;6460;42.684;23.260;2023-08-17T06:44:44;6.03;;;5.00;;
12792;SDS011;6460;42.684;23.260;2023-08-17T06:47:11;5.83;;;5.23;;
12792;SDS011;6460;42.684;23.260;2023-08-17T06:49:40;7.33;;;5.30;;
12792;SDS011;6460;42.684;23.260;2023-08-17T06:52:08;8.07;;;5.37;;
12792;SDS011;6460;42.684;23.260;2023-08-17T06:54:35;6.33;;;5.30;;
12792;SDS011;6460;42.684;23.260;2023-08-17T06:57:03;6.70;;;4.83;;
12792;SDS011;6460;42.684;23.260;2023-08-17T06:59:30;6.60;;;4.77;;
12792;SDS011;6460;42.684;23.260;2023-08-17T07:01:58;6.20;;;4.70;;
12792;SDS011;6460;42.684;23.260;2023-08-17T07:04:26;6.03;;;4.93;;
12792;SDS011;6460;42.684;23.260;2023-08-17T07:06:55;7.73;;;4.90;;
12792;SDS011;6460;42.684;23.260;2023-08-17T07:09:22;5.60;;;4.50;;
12792;SDS011;6460;42.684;23.260;2023-08-17T07:11:49;4.57;;;4.17;;
12792;SDS011;6460;42.684;23.260;2023-08-17T07:14:17;4.97;;;4.00;;
12792;SDS011;6460;42.684;23.260;2023-08-17T07:16:44;5.33;;;4.17;;
12792;SDS011;6460;42.684;23.260;2023-08-17T07:19:11;4.40;;;4.00;;
12792;SDS011;6460;42.684;23.260;2023-08-17T07:21:39;5.13;;;4.30;;
12792;SDS011;6460;42.684;23.260;2023-08-17T07:24:15;5.23;;;4.13;;
12792;SDS011;6460;42.684;23.260;2023-08-17T07:26:43;5.00;;;4.50;;
12792;SDS011;6460;42.684;23.260;2023-08-17T07:29:10;4.40;;;4.00;;
12792;SDS011;6460;42.684;23.260;2023-08-17T07:31:37;5.20;;;3.80;;
12792;SDS011;6460;42.684;23.260;2023-08-17T07:34:05;7.20;;;4.60;;
12792;SDS011;6460;42.684;23.260;2023-08-17T07:36:32;10.47;;;4.47;;
12792;SDS011;6460;42.684;23.260;2023-08-17T07:39:00;5.57;;;3.60;;
12792;SDS011;6460;42.684;23.260;2023-08-17T07:41:29;7.73;;;4.10;;
12792;SDS011;6460;42.684;23.260;2023-08-17T07:43:56;5.13;;;3.33;;
12792;SDS011;6460;42.684;23.260;2023-08-17T07:46:24;4.03;;;3.60;;
12792;SDS011;6460;42.684;23.260;2023-08-17T07:48:51;3.57;;;3.27;;
12792;SDS011;6460;42.684;23.260;2023-08-17T07:51:17;4.63;;;3.47;;
12792;SDS011;6460;42.684;23.260;2023-08-17T07:53:44;4.27;;;3.87;;
12792;SDS011;6460;42.684;23.260;2023-08-17T07:56:12;3.67;;;3.20;;
12792;SDS011;6460;42.684;23.260;2023-08-17T07:58:41;5.50;;;3.40;;
12792;SDS011;6460;42.684;23.260;2023-08-17T08:01:08;4.67;;;3.87;;
12792;SDS011;6460;42.684;23.260;2023-08-17T08:03:36;4.17;;;3.40;;
12792;SDS011;6460;42.684;23.260;2023-08-17T08:06:03;4.20;;;3.10;;
12792;SDS011;6460;42.684;23.260;2023-08-17T08:08:30;4.10;;;3.60;;
12792;SDS011;6460;42.684;23.260;2023-08-17T08:10:58;4.90;;;3.70;;
12792;SDS011;6460;42.684;23.260;2023-08-17T08:13:25;4.50;;;3.73;;
12792;SDS011;6460;42.684;23.260;2023-08-17T08:15:54;4.83;;;3.70;;
12792;SDS011;6460;42.684;23.260;2023-08-17T08:18:21;4.23;;;3.47;;
12792;SDS011;6460;42.684;23.260;2023-08-17T08:20:49;4.37;;;3.17;;
12792;SDS011;6460;42.684;23.260;2023-08-17T08:23:16;5.83;;;4.63;;
12792;SDS011;6460;42.684;23.260;2023-08-17T08:25:43;3.27;;;2.97;;
12792;SDS011;6460;42.684;23.260;2023-08-17T08:28:11;5.60;;;3.50;;
12792;SDS011;6460;42.684;23.260;2023-08-17T08:30:38;3.13;;;2.87;;
12792;SDS011;6460;42.684;23.260;2023-08-17T08:33:07;4.63;;;3.13;;
12792;SDS011;6460;42.684;23.260;2023-08-17T08:35:34;4.87;;;3.40;;
12792;SDS011;6460;42.684;23.260;2023-08-17T08:38:02;4.20;;;3.07;;
12792;SDS011;6460;42.684;23.260;2023-08-17T08:40:30;4.03;;;3.20;;
12792;SDS011;6460;42.684;23.260;2023-08-17T08:42:59;4.10;;;3.30;;
12792;SDS011;6460;42.684;23.260;2023-08-17T08:45:27;4.03;;;3.33;;
12792;SDS011;6460;42.684;23.260;2023-08-17T08:47:56;4.57;;;3.30;;
12792;SDS011;6460;42.684;23.260;2023-08-17T08:50:28;4.10;;;3.70;;
12792;SDS011;6460;42.684;23.260;2023-08-17T08:52:59;4.00;;;3.70;;
12792;SDS011;6460;42.684;23.260;2023-08-17T08:55:31;4.37;;;3.13;;
12792;SDS011;6460;42.684;23.260;2023-08-17T08:58:03;5.30;;;3.40;;
12792;SDS011;6460;42.684;23.260;2023-08-17T09:00:32;4.10;;;3.50;;
12792;SDS011;6460;42.684;23.260;2023-08-17T09:03:00;3.60;;;3.30;;
12792;SDS011;6460;42.684;23.260;2023-08-17T09:05:30;9.90;;;3.40;;
12792;SDS011;6460;42.684;23.260;2023-08-17T09:07:59;4.00;;;3.60;;
12792;SDS011;6460;42.684;23.260;2023-08-17T09:10:28;3.83;;;3.43;;
12792;SDS011;6460;42.684;23.260;2023-08-17T09:12:55;4.10;;;3.67;;
12792;SDS011;6460;42.684;23.260;2023-08-17T09:15:23;3.93;;;3.63;;
12792;SDS011;6460;42.684;23.260;2023-08-17T09:17:50;6.07;;;3.70;;
12792;SDS011;6460;42.684;23.260;2023-08-17T09:23:06;3.53;;;3.23;;
12792;SDS011;6460;42.684;23.260;2023-08-17T09:25:38;4.87;;;3.17;;
12792;SDS011;6460;42.684;23.260;2023-08-17T09:28:09;5.60;;;3.37;;
12792;SDS011;6460;42.684;23.260;2023-08-17T09:33:22;5.53;;;3.87;;
12792;SDS011;6460;42.684;23.260;2023-08-17T09:35:52;5.47;;;3.53;;
12792;SDS011;6460;42.684;23.260;2023-08-17T09:38:20;3.60;;;3.20;;
12792;SDS011;6460;42.684;23.260;2023-08-17T09:40:48;4.57;;;3.30;;
12792;SDS011;6460;42.684;23.260;2023-08-17T09:43:17;3.30;;;3.00;;
12792;SDS011;6460;42.684;23.260;2023-08-17T09:45:46;7.57;;;3.13;;
12792;SDS011;6460;42.684;23.260;2023-08-17T09:48:15;3.80;;;3.50;;
12792;SDS011;6460;42.684;23.260;2023-08-17T09:50:44;3.60;;;3.30;;
12792;SDS011;6460;42.684;23.260;2023-08-17T09:53:14;5.07;;;3.60;;
12792;SDS011;6460;42.684;23.260;2023-08-17T09:55:43;4.33;;;2.90;;
12792;SDS011;6460;42.684;23.260;2023-08-17T09:58:11;3.30;;;3.00;;
12792;SDS011;6460;42.684;23.260;2023-08-17T10:00:40;5.37;;;2.87;;
12792;SDS011;6460;42.684;23.260;2023-08-17T10:03:11;3.50;;;3.20;;
12792;SDS011;6460;42.684;23.260;2023-08-17T10:05:40;3.30;;;3.00;;
12792;SDS011;6460;42.684;23.260;2023-08-17T10:08:10;3.43;;;3.13;;
12792;SDS011;6460;42.684;23.260;2023-08-17T10:10:40;2.73;;;2.53;;
12792;SDS011;6460;42.684;23.260;2023-08-17T10:13:12;3.20;;;2.90;;
12792;SDS011;6460;42.684;23.260;2023-08-17T10:15:51;5.70;;;2.67;;
12792;SDS011;6460;42.684;23.260;2023-08-17T10:18:29;3.30;;;2.63;;
12792;SDS011;6460;42.684;23.260;2023-08-17T10:21:00;3.10;;;2.77;;
12792;SDS011;6460;42.684;23.260;2023-08-17T10:23:30;3.50;;;2.60;;
12792;SDS011;6460;42.684;23.260;2023-08-17T10:25:59;4.17;;;2.70;;
12792;SDS011;6460;42.684;23.260;2023-08-17T10:28:28;3.10;;;2.80;;
12792;SDS011;6460;42.684;23.260;2023-08-17T10:30:57;2.67;;;2.47;;
12792;SDS011;6460;42.684;23.260;2023-08-17T10:33:24;3.03;;;2.77;;
12792;SDS011;6460;42.684;23.260;2023-08-17T10:35:52;3.10;;;2.60;;
12792;SDS011;6460;42.684;23.260;2023-08-17T10:38:19;5.30;;;2.87;;
12792;SDS011;6460;42.684;23.260;2023-08-17T10:40:49;3.93;;;2.70;;
12792;SDS011;6460;42.684;23.260;2023-08-17T10:46:21;3.07;;;2.77;;
12792;SDS011;6460;42.684;23.260;2023-08-17T10:49:00;3.67;;;3.20;;
12792;SDS011;6460;42.684;23.260;2023-08-17T10:51:30;3.90;;;2.67;;
12792;SDS011;6460;42.684;23.260;2023-08-17T10:53:58;3.93;;;3.10;;
12792;SDS011;6460;42.684;23.260;2023-08-17T10:56:29;3.40;;;3.00;;
12792;SDS011;6460;42.684;23.260;2023-08-17T10:58:59;3.43;;;2.70;;
12792;SDS011;6460;42.684;23.260;2023-08-17T11:01:34;4.00;;;2.90;;
12792;SDS011;6460;42.684;23.260;2023-08-17T11:04:08;3.43;;;2.93;;
12792;SDS011;6460;42.684;23.260;2023-08-17T11:06:37;2.93;;;2.63;;
12792;SDS011;6460;42.684;23.260;2023-08-17T11:09:06;5.60;;;3.00;;
12792;SDS011;6460;42.684;23.260;2023-08-17T11:11:35;4.23;;;3.10;;
12792;SDS011;6460;42.684;23.260;2023-08-17T11:14:02;3.83;;;2.80;;
12792;SDS011;6460;42.684;23.260;2023-08-17T11:16:30;2.80;;;2.60;;
12792;SDS011;6460;42.684;23.260;2023-08-17T11:18:57;3.50;;;3.20;;
12792;SDS011;6460;42.684;23.260;2023-08-17T11:21:26;3.30;;;3.00;;
12792;SDS011;6460;42.684;23.260;2023-08-17T11:23:55;3.23;;;2.93;;
12792;SDS011;6460;42.684;23.260;2023-08-17T11:26:24;3.13;;;2.70;;
12792;SDS011;6460;42.684;23.260;2023-08-17T11:28:53;4.40;;;3.30;;
12792;SDS011;6460;42.684;23.260;2023-08-17T11:31:20;3.40;;;3.10;;
12792;SDS011;6460;42.684;23.260;2023-08-17T11:33:47;4.67;;;3.20;;
12792;SDS011;6460;42.684;23.260;2023-08-17T11:36:15;3.33;;;3.03;;
12792;SDS011;6460;42.684;23.260;2023-08-17T11:38:43;5.03;;;3.40;;
12792;SDS011;6460;42.684;23.260;2023-08-17T11:41:11;3.93;;;3.50;;
12792;SDS011;6460;42.684;23.260;2023-08-17T11:43:40;4.93;;;3.50;;
12792;SDS011;6460;42.684;23.260;2023-08-17T11:46:08;4.23;;;3.13;;
12792;SDS011;6460;42.684;23.260;2023-08-17T11:48:36;4.30;;;3.10;;
12792;SDS011;6460;42.684;23.260;2023-08-17T11:51:03;4.77;;;3.23;;
12792;SDS011;6460;42.684;23.260;2023-08-17T11:53:34;3.50;;;3.20;;
12792;SDS011;6460;42.684;23.260;2023-08-17T11:56:01;4.90;;;3.17;;
12792;SDS011;6460;42.684;23.260;2023-08-17T11:58:36;3.23;;;2.93;;
12792;SDS011;6460;42.684;23.260;2023-08-17T12:01:10;3.13;;;2.90;;
12792;SDS011;6460;42.684;23.260;2023-08-17T12:03:37;3.20;;;3.00;;
12792;SDS011;6460;42.684;23.260;2023-08-17T12:06:05;3.93;;;3.53;;
12792;SDS011;6460;42.684;23.260;2023-08-17T12:08:33;4.67;;;3.40;;
12792;SDS011;6460;42.684;23.260;2023-08-17T12:11:00;4.30;;;3.30;;
12792;SDS011;6460;42.684;23.260;2023-08-17T12:13:30;4.00;;;3.27;;
12792;SDS011;6460;42.684;23.260;2023-08-17T12:15:59;7.05;;;3.50;;
12792;SDS011;6460;42.684;23.260;2023-08-17T12:18:27;4.03;;;3.15;;
12792;SDS011;6460;42.684;23.260;2023-08-17T12:20:55;4.75;;;3.33;;
12792;SDS011;6460;42.684;23.260;2023-08-17T12:23:22;5.15;;;3.08;;
12792;SDS011;6460;42.684;23.260;2023-08-17T12:25:52;3.63;;;3.33;;
12792;SDS011;6460;42.684;23.260;2023-08-17T12:28:20;3.50;;;3.20;;
12792;SDS011;6460;42.684;23.260;2023-08-17T12:30:56;3.53;;;3.20;;
12792;SDS011;6460;42.684;23.260;2023-08-17T12:33:24;3.80;;;3.30;;
12792;SDS011;6460;42.684;23.260;2023-08-17T12:35:53;3.47;;;3.17;;
12792;SDS011;6460;42.684;23.260;2023-08-17T12:38:21;5.07;;;4.60;;
12792;SDS011;6460;42.684;23.260;2023-08-17T12:40:50;5.20;;;4.70;;
12792;SDS011;6460;42.684;23.260;2023-08-17T12:43:17;5.40;;;4.90;;
12792;SDS011;6460;42.684;23.260;2023-08-17T12:45:44;4.97;;;4.47;;
12792;SDS011;6460;42.684;23.260;2023-08-17T12:48:11;6.50;;;4.87;;
12792;SDS011;6460;42.684;23.260;2023-08-17T12:50:38;5.10;;;4.60;;
12792;SDS011;6460;42.684;23.260;2023-08-17T12:53:07;5.47;;;4.90;;
12792;SDS011;6460;42.684;23.260;2023-08-17T12:55:34;5.43;;;4.93;;
12792;SDS011;6460;42.684;23.260;2023-08-17T12:58:02;4.87;;;4.47;;
12792;SDS011;6460;42.684;23.260;2023-08-17T13:00:30;5.97;;;4.90;;
12792;SDS011;6460;42.684;23.260;2023-08-17T13:02:58;5.23;;;4.73;;
12792;SDS011;6460;42.684;23.260;2023-08-17T13:05:25;5.13;;;4.60;;
12792;SDS011;6460;42.684;23.260;2023-08-17T13:07:52;5.03;;;4.63;;
12792;SDS011;6460;42.684;23.260;2023-08-17T13:10:21;4.97;;;4.57;;
12792;SDS011;6460;42.684;23.260;2023-08-17T13:12:48;4.50;;;4.20;;
12792;SDS011;6460;42.684;23.260;2023-08-17T13:15:20;6.93;;;4.57;;
12792;SDS011;6460;42.684;23.260;2023-08-17T13:17:47;5.23;;;4.70;;
12792;SDS011;6460;42.684;23.260;2023-08-17T13:20:14;5.40;;;4.90;;
12792;SDS011;6460;42.684;23.260;2023-08-17T13:22:42;5.10;;;4.60;;
12792;SDS011;6460;42.684;23.260;2023-08-17T13:25:09;4.90;;;4.40;;
12792;SDS011;6460;42.684;23.260;2023-08-17T13:27:37;4.80;;;4.40;;
12792;SDS011;6460;42.684;23.260;2023-08-17T13:30:05;4.53;;;4.20;;
12792;SDS011;6460;42.684;23.260;2023-08-17T13:32:33;4.83;;;4.13;;
12792;SDS011;6460;42.684;23.260;2023-08-17T13:35:01;6.77;;;4.90;;
12792;SDS011;6460;42.684;23.260;2023-08-17T13:37:29;4.90;;;4.40;;
12792;SDS011;6460;42.684;23.260;2023-08-17T13:39:56;5.10;;;4.60;;
12792;SDS011;6460;42.684;23.260;2023-08-17T13:42:25;6.50;;;4.80;;
12792;SDS011;6460;42.684;23.260;2023-08-17T13:44:54;6.23;;;4.77;;
12792;SDS011;6460;42.684;23.260;2023-08-17T13:47:21;10.50;;;4.80;;
12792;SDS011;6460;42.684;23.260;2023-08-17T13:49:48;5.43;;;4.87;;
12792;SDS011;6460;42.684;23.260;2023-08-17T13:52:16;6.53;;;6.03;;
12792;SDS011;6460;42.684;23.260;2023-08-17T13:54:43;7.80;;;6.97;;
12792;SDS011;6460;42.684;23.260;2023-08-17T13:57:10;6.57;;;5.57;;
12792;SDS011;6460;42.684;23.260;2023-08-17T13:59:38;5.10;;;4.70;;
12792;SDS011;6460;42.684;23.260;2023-08-17T14:02:07;4.53;;;4.13;;
12792;SDS011;6460;42.684;23.260;2023-08-17T14:04:34;4.87;;;4.07;;
12792;SDS011;6460;42.684;23.260;2023-08-17T14:07:02;4.50;;;4.10;;
12792;SDS011;6460;42.684;23.260;2023-08-17T14:09:29;6.50;;;4.20;;
12792;SDS011;6460;42.684;23.260;2023-08-17T14:11:57;4.53;;;4.13;;
12792;SDS011;6460;42.684;23.260;2023-08-17T14:14:25;6.53;;;4.13;;
12792;SDS011;6460;42.684;23.260;2023-08-17T14:16:52;4.50;;;4.10;;
12792;SDS011;6460;42.684;23.260;2023-08-17T14:19:20;4.43;;;4.00;;
12792;SDS011;6460;42.684;23.260;2023-08-17T14:21:47;4.60;;;4.20;;
12792;SDS011;6460;42.684;23.260;2023-08-17T14:24:14;6.10;;;4.03;;
12792;SDS011;6460;42.684;23.260;2023-08-17T14:26:42;5.30;;;4.00;;
12792;SDS011;6460;42.684;23.260;2023-08-17T14:29:10;4.17;;;3.83;;
12792;SDS011;6460;42.684;23.260;2023-08-17T14:31:37;3.93;;;3.63;;
12792;SDS011;6460;42.684;23.260;2023-08-17T14:34:04;4.17;;;3.70;;
12792;SDS011;6460;42.684;23.260;2023-08-17T14:36:33;6.37;;;4.07;;
12792;SDS011;6460;42.684;23.260;2023-08-17T14:39:00;5.73;;;4.13;;
12792;SDS011;6460;42.684;23.260;2023-08-17T14:41:27;4.13;;;3.53;;
12792;SDS011;6460;42.684;23.260;2023-08-17T14:43:57;4.53;;;4.17;;
12792;SDS011;6460;42.684;23.260;2023-08-17T14:46:24;4.27;;;3.90;;
12792;SDS011;6460;42.684;23.260;2023-08-17T14:48:52;4.73;;;4.00;;
12792;SDS011;6460;42.684;23.260;2023-08-17T14:51:19;5.80;;;3.93;;
12792;SDS011;6460;42.684;23.260;2023-08-17T14:53:47;4.70;;;3.80;;
12792;SDS011;6460;42.684;23.260;2023-08-17T14:56:15;4.03;;;3.73;;
12792;SDS011;6460;42.684;23.260;2023-08-17T14:58:42;4.50;;;4.10;;
12792;SDS011;6460;42.684;23.260;2023-08-17T15:01:09;4.77;;;3.73;;